CW9669 Weather Reports


Display with metric or nautical units.
time (UTC)temp
F
wind
direction
speed
MPH
gust
MPH
rain 1hr
in
rain 24hr
in
rain mn
in
humidity
%
barometer
mb
20210918141113 57 240 1.0 7.0 0.07 0.58 0.58 95 1006.6
20210918140117 57 192 1.0 4.0 0.08 0.56 0.56 95 1008.6
20210918135114 57 218 1.0 3.0 0.12 0.56 0.56 95 1007.6
20210918134110 57 26 1.0 4.0 0.14 0.55 0.55 95 1007.4
20210918133105 57 230 1.0 3.0 0.15 0.54 0.54 95 1007.8
20210918132106 57 209 0.0 3.0 0.14 0.52 0.52 95 1008.2
20210918131107 57 222 1.0 4.0 0.15 0.51 0.51 95 1008.5
20210918130105 58 214 0.0 3.0 0.13 0.48 0.48 95 1008.3
20210918125109 58 140 0.0 4.0 0.11 0.44 0.44 95 1008.3
20210918124106 58 211 0.0 4.0 0.10 0.41 0.41 95 1008.3
20210918123108 58 144 1.0 4.0 0.11 0.39 0.39 95 1008.6
20210918122109 58 229 0.0 3.0 0.13 0.38 0.38 95 1008.3
20210918121110 58 144 1.0 5.0 0.13 0.36 0.36 95 1008.5
20210918120104 58 227 0.0 3.0 0.14 0.35 0.35 95 1008.3
20210918115102 58 165 0.0 2.0 0.15 0.33 0.33 95 1008.5
20210918114102 58 142 0.0 4.0 0.14 0.31 0.31 95 1008.7
20210918113103 58 200 0.0 1.0 0.13 0.28 0.28 95 1008.7
20210918112103 58 200 0.0 2.0 0.11 0.25 0.25 95 1008.5
20210918111101 58 139 0.0 4.0 0.10 0.23 0.23 95 1008.6
20210918110105 58 130 0.0 1.0 0.08 0.21 0.21 95 1008.4
20210918105104 58 216 0.0 1.0 0.05 0.18 0.18 95 1008.6
20210918104102 58 48 0.0 0.0 0.04 0.17 0.17 95 1008.5
20210918103100 58 48 0.0 0.0 0.02 0.15 0.15 95 1008.6
20210918102055 58 49 0.0 0.0 0.01 0.14 0.14 95 1008.7
20210918101056 58 327 0.0 0.0 0.00 0.13 0.13 95 1008.9
20210918100055 58 327 0.0 0.0 0.00 0.13 0.13 94 1008.7
20210918095052 58 342 0.0 4.0 0.00 0.13 0.13 94 1008.6
20210918094050 58 281 1.0 3.0 0.01 0.13 0.13 94 1008.6
20210918093051 58 19 2.0 5.0 0.03 0.13 0.13 94 1008.8
20210918092042 58 24 2.0 7.0 0.11 0.13 0.13 93 1008.6
20210918091048 59 287 4.0 14.0 0.13 0.13 0.13 92 1008.7
20210918090040 59 323 2.0 14.0 0.13 0.13 0.13 92 1008.8
20210918085042 60 284 2.0 10.0 0.13 0.13 0.13 91 1008.8
20210918084040 61 16 2.0 9.0 0.12 0.12 0.12 90 1008.6
20210918083038 62 280 5.0 18.0 0.10 0.10 0.10 86 1008.5
20210918082039 68 298 2.0 12.0 0.02 0.02 0.02 78 1008.0
20210918081031 70 205 2.0 12.0 0.00 0.00 0.00 67 1006.8
20210918080030 70 142 2.0 9.0 0.00 0.00 0.00 67 1006.7
20210918075032 70 209 4.0 15.0 0.00 0.00 0.00 67 1006.8
20210918074029 70 206 3.0 10.0 0.00 0.00 0.00 67 1006.9
20210918073030 70 150 1.0 8.0 0.00 0.00 0.00 67 1006.8
20210918072037 70 144 1.0 12.0 0.00 0.00 0.00 68 1007.1
20210918071120 69 202 0.0 3.0 0.00 0.00 0.00 69 1007.3
20210918070603 69 209 0.0 5.0 0.00 0.00 0.00 69 1007.3
20210918065027 69 179 0.0 6.0 0.00 0.00 0.00 70 1007.4
20210918064027 68 225 0.0 6.0 0.00 0.00 0.00 71 1007.4
20210918063024 69 171 0.0 1.0 0.00 0.00 0.00 70 1007.4
20210918062023 69 182 0.0 8.0 0.00 0.00 0.00 70 1007.4
20210918061029 69 215 0.0 0.0 0.00 0.00 0.00 70 1007.4
20210918060024 69 142 0.0 4.0 0.00 0.00 0.00 70 1007.5
20210918055018 69 218 1.0 4.0 0.00 0.00 0.00 70 1007.4
20210918054018 69 108 0.0 2.0 0.00 0.00 0.00 71 1007.5
20210918053019 69 152 0.0 5.0 0.00 0.00 0.00 70 1007.5
20210918052025 69 167 0.0 7.0 0.00 0.00 0.00 70 1007.4
20210918051018 69 121 0.0 5.0 0.00 0.00 0.00 70 1007.5
20210918050017 70 158 0.0 6.0 0.00 0.00 0.00 69 1007.6
20210918045015 70 211 0.0 7.0 0.00 0.00 0.00 69 1007.9
20210918044013 70 86 0.0 3.0 0.00 0.00 0.00 69 1008.0
20210918043013 70 210 1.0 7.0 0.00 0.00 0.00 69 1008.0
20210918042016 70 193 0.0 4.0 0.00 0.00 0.00 69 1007.9
20210918041013 70 154 0.0 5.0 0.00 0.00 0.00 69 1007.8
20210918040018 70 164 1.0 7.0 0.00 0.00 0.00 68 1007.8
20210918035020 70 194 1.0 6.0 0.00 0.00 0.00 67 1007.9
20210918034014 70 196 0.0 5.0 0.00 0.00 0.00 67 1007.9
20210918033012 71 162 0.0 6.0 0.00 0.00 0.00 66 1007.9
20210918032012 71 168 1.0 6.0 0.00 0.00 0.00 65 1007.9
20210918031015 71 141 0.0 2.0 0.00 0.00 0.00 64 1007.9
20210918030011 71 126 0.0 0.0 0.00 0.00 0.00 63 1007.8
20210918025016 71 168 0.0 0.0 0.00 0.00 0.00 63 1007.8
20210918024014 71 205 0.0 1.0 0.00 0.00 0.00 62 1007.8
20210918023012 72 203 0.0 0.0 0.00 0.00 0.00 61 1007.8
20210918022013 72 336 0.0 0.0 0.00 0.00 0.00 61 1008.0
20210918021016 73 336 0.0 1.0 0.00 0.00 0.00 59 1008.0
20210918020009 73 219 0.0 1.0 0.00 0.00 0.00 59 1008.0
20210918015009 73 277 0.0 3.0 0.00 0.00 0.00 58 1008.0
20210918014009 74 209 1.0 6.0 0.00 0.00 0.00 57 1008.1
20210918013010 74 286 1.0 5.0 0.00 0.00 0.00 56 1008.2
20210918012007 75 327 1.0 5.0 0.00 0.00 0.00 53 1008.3
20210918011009 75 292 2.0 10.0 0.00 0.00 0.00 50 1008.2
20210918010008 76 284 1.0 9.0 0.00 0.00 0.00 47 1008.2
20210918005009 77 245 1.0 6.0 0.00 0.00 0.00 41 1008.2
20210918004007 77 276 0.0 5.0 0.00 0.00 0.00 35 1008.3
20210918003007 78 277 0.0 4.0 0.00 0.00 0.00 34 1008.3
20210918002015 78 37 0.0 4.0 0.00 0.00 0.00 32 1008.4
20210918001008 79 254 1.0 6.0 0.00 0.00 0.00 32 1008.4
20210918000007 80 17 1.0 7.0 0.00 0.00 0.00 33 1008.4
20210917235006 81 313 0.0 4.0 0.00 0.00 0.00 34 1008.4
20210917234008 81 257 0.0 5.0 0.00 0.00 0.00 33 1008.4
20210917233006 81 280 1.0 8.0 0.00 0.00 0.00 33 1008.4
20210917232004 81 309 2.0 9.0 0.00 0.00 0.00 31 1008.4
20210917231004 81 279 1.0 7.0 0.00 0.00 0.00 31 1008.4
20210917230003 81 226 1.0 5.0 0.00 0.00 0.00 31 1008.3
20210917225004 81 157 0.0 2.0 0.00 0.00 0.00 28 1008.5
20210917224008 82 280 1.0 7.0 0.00 0.00 0.00 26 1008.4
20210917223001 81 150 1.0 8.0 0.00 0.00 0.00 25 1008.5
20210917222002 81 248 0.0 4.0 0.00 0.00 0.00 25 1008.5
20210917221000 80 259 1.0 5.0 0.00 0.00 0.00 24 1008.6
20210917220002 80 296 1.0 4.0 0.00 0.00 0.00 24 1008.6
20210917215004 79 38 2.0 9.0 0.00 0.00 0.00 23 1008.6
20210917214008 79 250 1.0 8.0 0.00 0.00 0.00 24 1008.6
20210917213002 79 275 0.0 7.0 0.00 0.00 0.00 24 1008.7
20210917212001 79 257 1.0 8.0 0.00 0.00 0.00 24 1008.7
20210917211001 78 125 1.0 5.0 0.00 0.00 0.00 25 1008.8
20210917210000 78 289 0.0 4.0 0.00 0.00 0.00 25 1009.1
20210917205003 77 284 0.0 4.0 0.00 0.00 0.00 27 1009.2
20210917204003 76 297 0.0 3.0 0.00 0.00 0.00 31 1009.4
20210917203002 75 310 0.0 2.0 0.00 0.00 0.00 32 1009.7
20210917202005 74 318 0.0 2.0 0.00 0.00 0.00 36 1009.7
20210917201008 74 312 0.0 2.0 0.00 0.00 0.00 34 1009.8
20210917200001 74 321 0.0 1.0 0.00 0.00 0.00 37 1009.9
20210917195001 73 160 0.0 2.0 0.00 0.00 0.00 38 1010.1
20210917194001 73 117 0.0 3.0 0.00 0.00 0.00 40 1010.1
20210917193004 72 186 0.0 1.0 0.00 0.00 0.00 40 1010.4
20210917192002 71 188 0.0 2.0 0.00 0.00 0.00 41 1010.6
20210917191002 70 148 0.0 1.0 0.00 0.00 0.00 43 1010.7
20210917190002 70 278 0.0 4.0 0.00 0.00 0.00 43 1010.7
20210917185002 69 148 0.0 3.0 0.00 0.00 0.00 45 1010.8
20210917184003 68 174 0.0 2.0 0.00 0.00 0.00 47 1010.9
20210917183004 67 160 0.0 2.0 0.00 0.00 0.00 48 1011.1
20210917182001 65 143 0.0 2.0 0.00 0.00 0.00 50 1011.3
20210917181001 64 55 0.0 1.0 0.00 0.00 0.00 54 1011.4
20210917180001 63 63 0.0 0.0 0.00 0.00 0.00 55 1011.5
20210917175001 62 79 0.0 1.0 0.00 0.00 0.00 56 1011.6
20210917174002 61 26 0.0 2.0 0.00 0.00 0.00 57 1011.6
20210917173003 60 157 0.0 2.0 0.00 0.00 0.00 59 1011.6
20210917172002 60 121 0.0 3.0 0.00 0.00 0.00 60 1011.6
20210917171002 59 196 0.0 2.0 0.00 0.00 0.00 59 1011.6
20210917170002 59 156 1.0 7.0 0.00 0.00 0.00 59 1011.7
20210917165002 58 99 0.0 4.0 0.00 0.00 0.00 61 1011.6
20210917164001 57 113 1.0 7.0 0.00 0.00 0.00 64 1011.7
20210917163001 55 199 0.0 5.0 0.00 0.00 0.00 68 1011.8
20210917162002 54 142 0.0 3.0 0.00 0.00 0.00 70 1011.9
20210917161003 53 203 1.0 5.0 0.00 0.00 0.00 71 1011.8
20210917160002 52 213 1.0 8.0 0.00 0.00 0.00 72 1012.0
20210917155002 51 221 0.0 5.0 0.00 0.00 0.00 74 1011.8
20210917154007 50 121 0.0 4.0 0.00 0.00 0.00 76 1012.0
20210917153015 49 219 0.0 0.0 0.00 0.00 0.00 78 1012.1
20210917152003 49 167 0.0 0.0 0.00 0.00 0.00 79 1012.1
20210917151001 48 146 0.0 0.0 0.00 0.00 0.00 80 1012.2
20210917150001 48 232 0.0 3.0 0.00 0.00 0.00 81 1012.2
20210917145002 48 143 0.0 3.0 0.00 0.00 0.00 81 1012.2
20210917144000 47 201 0.0 2.0 0.00 0.00 0.00 82 1012.1
20210917143005 46 145 0.0 1.0 0.00 0.00 0.00 85 1012.2
20210917142001 45 42 0.0 0.0 0.00 0.00 0.00 84 1012.3